Terminal Aerodrome Forecast
Issued by NWS Upton, NY

Home | Current Version | Previous Version | Text Only | Print | Product List | Glossary On
Versions: 1 2 3 4 5 6 7 8 9 10 11 12 13 14 15 16 17 18 19 20 21 22 23 24 25 26 27 28 29 30
679
FTUS41 KOKX 220837 AAA
TAFLGA
TAF AMD
KLGA 220837Z 2209/2306 VRB05KT P6SM -RA SCT045 OVC200
     FM221000 VRB05KT 6SM -RA OVC040
     FM221200 VRB05KT 4SM -RA BR OVC010
     FM221400 31007KT 6SM -SHRA BKN025
     FM221600 32012G19KT P6SM SCT030 BKN080
     FM221900 33018G25KT P6SM SCT040 SCT250
     FM230300 32013G19KT P6SM SKC=

USA.gov is the U.S. government's official web portal to all federal, state and local government web resources and services.